createdAt,value
2022-10-06T00:01:34.847Z,100753.30
2022-10-06T00:04:37.361Z,100755.86
2022-10-06T00:07:40.143Z,100756.96
2022-10-06T00:10:42.693Z,100761.80
2022-10-06T00:13:45.555Z,100757.95
2022-10-06T00:16:48.106Z,100758.88
2022-10-06T00:19:50.576Z,100758.63
2022-10-06T00:22:53.264Z,100754.20
2022-10-06T00:25:56.358Z,100752.73
2022-10-06T00:28:58.975Z,100751.55
2022-10-06T00:32:01.496Z,100752.90
2022-10-06T00:35:04.911Z,100751.14
2022-10-06T00:38:07.560Z,100753.41
2022-10-06T00:41:11.283Z,100755.66
2022-10-06T00:44:13.909Z,100743.65
2022-10-06T00:47:22.016Z,100751.34
2022-10-06T00:50:24.755Z,100750.70
2022-10-06T00:53:28.614Z,100750.65
2022-10-06T00:56:31.349Z,100750.80
2022-10-06T00:59:34.712Z,100753.98
2022-10-06T01:02:41.144Z,100755.69
2022-10-06T01:05:46.547Z,100761.95
2022-10-06T01:08:49.401Z,100761.71
2022-10-06T01:11:53.591Z,100766.13
2022-10-06T01:14:56.711Z,100767.98
2022-10-06T01:18:02.387Z,100767.52
2022-10-06T01:21:10.185Z,100776.81
2022-10-06T01:24:16.317Z,100779.42
2022-10-06T01:27:19.969Z,100780.55
2022-10-06T01:30:25.565Z,100782.28
2022-10-06T01:33:29.187Z,100780.96
2022-10-06T01:36:32.149Z,100782.14
2022-10-06T01:39:34.804Z,100777.55
2022-10-06T01:42:37.835Z,100784.98
2022-10-06T01:45:40.411Z,100793.11
2022-10-06T01:48:43.936Z,100792.95
2022-10-06T01:51:48.152Z,100796.16
2022-10-06T01:54:50.816Z,100799.05
2022-10-06T01:57:53.797Z,100797.63
2022-10-06T02:00:57.085Z,100799.65
2022-10-06T02:04:00.651Z,100801.58
2022-10-06T02:07:04.370Z,100802.91
2022-10-06T02:10:14.216Z,100806.23
2022-10-06T02:13:17.787Z,100808.58
2022-10-06T02:16:21.892Z,100806.48
2022-10-06T02:19:24.561Z,100809.42
2022-10-06T02:22:30.464Z,100807.79
2022-10-06T02:25:32.983Z,100811.42
2022-10-06T02:28:35.551Z,100811.80
2022-10-06T02:31:39.023Z,100817.69
2022-10-06T02:34:41.859Z,100818.65
2022-10-06T02:37:45.455Z,100821.35
2022-10-06T02:40:51.211Z,100822.98
2022-10-06T02:43:54.540Z,100826.23
2022-10-06T02:46:57.423Z,100827.27
2022-10-06T02:50:01.727Z,100829.65
2022-10-06T02:53:06.408Z,100834.71
2022-10-06T02:56:10.320Z,100836.95
2022-10-06T02:59:13.213Z,100837.34
2022-10-06T03:02:16.378Z,100845.64
2022-10-06T03:05:19.841Z,100849.85
2022-10-06T03:08:22.504Z,100855.49
2022-10-06T03:11:27.153Z,100856.64
2022-10-06T03:14:33.027Z,100860.92
2022-10-06T03:17:35.826Z,100863.16
2022-10-06T03:20:38.857Z,100860.92
2022-10-06T03:23:41.965Z,100867.66
2022-10-06T03:26:47.267Z,100867.10
2022-10-06T03:29:50.967Z,100868.94
2022-10-06T03:32:54.547Z,100871.20
2022-10-06T03:36:00.438Z,100868.29
2022-10-06T03:39:04.369Z,100872.45
2022-10-06T03:42:07.852Z,100873.55
2022-10-06T03:45:13.427Z,100879.35
2022-10-06T03:48:15.966Z,100883.77
2022-10-06T03:51:20.888Z,100886.86
2022-10-06T03:54:23.999Z,100887.40
2022-10-06T03:57:27.284Z,100891.41
2022-10-06T04:00:30.505Z,100895.26
2022-10-06T04:03:33.846Z,100898.02
2022-10-06T04:06:37.395Z,100902.29
2022-10-06T04:09:41.550Z,100904.73
2022-10-06T04:12:45.798Z,100902.86
2022-10-06T04:15:48.718Z,100904.41
2022-10-06T04:18:52.951Z,100907.95
2022-10-06T04:21:55.448Z,100914.25
2022-10-06T04:25:00.609Z,100915.16
2022-10-06T04:28:03.578Z,100919.98
2022-10-06T04:31:15.138Z,100922.45
2022-10-06T04:34:17.883Z,100922.52
2022-10-06T04:37:21.660Z,100923.15
2022-10-06T04:40:24.787Z,100925.64
2022-10-06T04:43:27.698Z,100924.28
2022-10-06T04:46:42.582Z,100929.58
2022-10-06T04:49:46.723Z,100936.30
2022-10-06T04:52:49.495Z,100938.98
2022-10-06T04:55:59.459Z,100942.80
2022-10-06T04:59:02.009Z,100954.02
2022-10-06T05:02:06.311Z,100952.22
2022-10-06T05:05:10.333Z,100955.35
2022-10-06T05:08:13.755Z,100951.83
2022-10-06T05:11:18.099Z,100953.13
2022-10-06T05:14:22.230Z,100958.17
2022-10-06T05:17:25.732Z,100958.64
2022-10-06T05:20:31.040Z,100961.88
2022-10-06T05:23:36.943Z,100964.27
2022-10-06T05:26:39.738Z,100972.05
2022-10-06T05:29:45.809Z,100979.83
2022-10-06T05:32:49.889Z,100982.38
2022-10-06T05:35:52.875Z,100977.43
2022-10-06T05:38:56.430Z,100983.58
2022-10-06T05:41:59.007Z,100992.59
2022-10-06T05:45:02.591Z,101000.58
2022-10-06T05:48:05.731Z,101012.84
2022-10-06T05:51:09.979Z,101019.69
2022-10-06T05:54:14.450Z,101017.30
2022-10-06T05:57:17.091Z,101021.98
2022-10-06T06:00:19.903Z,101024.98
2022-10-06T06:03:22.712Z,101029.89
2022-10-06T06:06:26.419Z,101031.86
2022-10-06T06:09:30.710Z,101031.91
2022-10-06T06:12:35.083Z,101041.97
2022-10-06T06:16:03.560Z,101042.91
2022-10-06T06:19:08.066Z,101052.06
2022-10-06T06:22:12.041Z,101050.88
2022-10-06T06:25:16.502Z,101052.20
2022-10-06T06:28:19.558Z,101055.08
2022-10-06T06:31:25.971Z,101066.04
2022-10-06T06:34:29.468Z,101077.00
2022-10-06T06:37:32.888Z,101079.55
2022-10-06T06:40:39.464Z,101086.38
2022-10-06T06:43:42.127Z,101098.89
2022-10-06T06:46:53.382Z,101110.20
2022-10-06T06:49:58.237Z,101112.74
2022-10-06T06:53:01.847Z,101119.28
2022-10-06T06:56:05.844Z,101125.90
2022-10-06T06:59:11.186Z,101137.63
2022-10-06T07:02:15.126Z,101152.39
2022-10-06T07:05:20.119Z,101156.55
2022-10-06T07:08:22.719Z,101160.16
2022-10-06T07:11:26.666Z,101163.04
2022-10-06T07:14:29.744Z,101167.45
2022-10-06T07:17:50.746Z,101166.36
2022-10-06T07:21:11.903Z,101169.98
2022-10-06T07:24:33.076Z,101173.91
2022-10-06T07:27:36.758Z,101184.73
2022-10-06T07:30:40.925Z,101188.38
2022-10-06T07:33:55.368Z,101190.57
2022-10-06T07:37:01.581Z,101192.86
2022-10-06T07:40:08.350Z,101197.91
2022-10-06T07:43:11.083Z,101206.11
2022-10-06T07:46:24.280Z,101203.69
2022-10-06T07:49:34.857Z,101205.34
2022-10-06T07:52:39.215Z,101211.41
2022-10-06T07:55:44.485Z,101222.07
2022-10-06T07:58:57.972Z,101224.52
2022-10-06T08:02:00.595Z,101231.02
2022-10-06T08:05:03.359Z,101238.88
2022-10-06T08:08:06.227Z,101246.20
2022-10-06T08:11:09.359Z,101258.75
2022-10-06T08:14:14.398Z,101269.86
2022-10-06T08:17:17.001Z,101275.49
2022-10-06T08:20:19.790Z,101280.82
2022-10-06T08:23:22.346Z,101284.43
2022-10-06T08:26:25.728Z,101292.19
2022-10-06T08:29:28.425Z,101303.14
2022-10-06T08:32:32.414Z,101305.41
2022-10-06T08:35:35.521Z,101312.38
2022-10-06T08:38:38.525Z,101318.21
2022-10-06T08:41:47.745Z,101327.89
2022-10-06T08:44:56.268Z,101328.19
2022-10-06T08:48:01.981Z,101331.92
2022-10-06T08:51:22.177Z,101342.13
2022-10-06T08:54:29.247Z,101350.52
2022-10-06T08:57:36.635Z,101348.31
2022-10-06T09:00:39.290Z,101357.54
2022-10-06T09:03:46.599Z,101363.00
2022-10-06T09:06:51.834Z,101361.41
2022-10-06T09:10:03.215Z,101363.63
2022-10-06T09:13:07.448Z,101365.88
2022-10-06T09:16:12.817Z,101368.73
2022-10-06T09:19:19.304Z,101367.70
2022-10-06T09:22:22.968Z,101377.75
2022-10-06T09:25:27.675Z,101384.29
2022-10-06T09:28:30.191Z,101383.13
2022-10-06T09:31:37.257Z,101380.66
2022-10-06T09:34:42.462Z,101395.74
2022-10-06T09:37:56.386Z,101397.89
2022-10-06T09:40:58.991Z,101399.27
2022-10-06T09:44:04.127Z,101413.02
2022-10-06T09:47:20.880Z,101435.45
2022-10-06T09:50:24.927Z,101436.89
2022-10-06T09:53:27.316Z,101444.39
2022-10-06T09:56:32.513Z,101445.54
2022-10-06T09:59:40.123Z,101464.83
2022-10-06T10:02:43.283Z,101463.63
2022-10-06T10:05:49.861Z,101476.51
2022-10-06T10:08:56.508Z,101476.66
2022-10-06T10:12:27.275Z,101482.01
2022-10-06T10:15:32.416Z,101491.97
2022-10-06T10:18:34.944Z,101490.27
2022-10-06T10:21:37.760Z,101503.84
2022-10-06T10:24:49.703Z,101506.59
2022-10-06T10:27:54.818Z,101511.39
2022-10-06T10:31:01.206Z,101518.77
2022-10-06T10:34:12.462Z,101526.14
2022-10-06T10:37:27.957Z,101527.02
2022-10-06T10:40:35.620Z,101535.39
2022-10-06T10:43:41.419Z,101532.80
2022-10-06T10:46:47.719Z,101530.33
2022-10-06T10:49:53.004Z,101527.80
2022-10-06T10:52:59.051Z,101532.70
2022-10-06T10:56:03.197Z,101535.60
2022-10-06T10:59:10.765Z,101538.27
2022-10-06T11:02:17.160Z,101543.36
2022-10-06T11:05:31.955Z,101541.68
2022-10-06T11:08:39.765Z,101540.27
2022-10-06T11:11:51.924Z,101550.23
2022-10-06T11:14:58.879Z,101544.95
2022-10-06T11:18:08.715Z,101556.16
2022-10-06T11:21:13.689Z,101549.08
2022-10-06T11:24:19.447Z,101562.05
2022-10-06T11:27:27.135Z,101567.10
2022-10-06T11:30:33.235Z,101561.05
2022-10-06T11:33:40.281Z,101569.83
2022-10-06T11:36:46.833Z,101559.89
2022-10-06T11:39:54.007Z,101563.08
2022-10-06T11:43:01.308Z,101560.79
2022-10-06T11:46:07.511Z,101567.20
2022-10-06T11:49:28.159Z,101576.58
2022-10-06T11:52:45.589Z,101582.23
2022-10-06T11:56:08.749Z,101579.66
2022-10-06T11:59:34.565Z,101576.40
2022-10-06T12:02:37.994Z,101586.13
2022-10-06T12:05:57.285Z,101592.07
2022-10-06T12:09:01.333Z,101594.10
2022-10-06T12:12:26.022Z,101604.27
2022-10-06T12:19:18.845Z,101620.73
2022-10-06T12:22:24.705Z,101613.46
2022-10-06T12:25:31.384Z,101611.34
2022-10-06T12:28:36.623Z,101619.04
2022-10-06T12:31:44.728Z,101620.12
2022-10-06T12:34:55.565Z,101629.58
2022-10-06T12:38:03.949Z,101630.32
2022-10-06T12:41:09.118Z,101629.63
2022-10-06T12:44:21.486Z,101625.61
2022-10-06T12:47:30.419Z,101622.62
2022-10-06T12:50:33.249Z,101638.70
2022-10-06T12:53:38.254Z,101633.33
2022-10-06T12:56:41.558Z,101645.54
2022-10-06T12:59:44.523Z,101659.02
2022-10-06T13:02:47.628Z,101653.88
2022-10-06T13:05:51.199Z,101649.91
2022-10-06T13:09:12.425Z,101647.49
2022-10-06T13:12:26.665Z,101658.52
2022-10-06T13:18:37.904Z,101659.73
2022-10-06T13:21:40.716Z,101657.29
2022-10-06T13:24:43.139Z,101667.41
2022-10-06T13:27:49.786Z,101674.08
2022-10-06T13:30:53.479Z,101688.04
2022-10-06T13:33:58.415Z,101701.17
2022-10-06T13:37:01.525Z,101697.79
2022-10-06T13:40:21.958Z,101690.29
2022-10-06T13:43:34.095Z,101697.33
2022-10-06T13:47:22.064Z,101701.10
2022-10-06T13:50:27.293Z,101703.46
2022-10-06T13:53:33.712Z,101704.40
2022-10-06T13:56:40.736Z,101704.70
2022-10-06T13:59:46.582Z,101708.37
2022-10-06T14:02:54.364Z,101713.55
2022-10-06T14:06:12.701Z,101712.19
2022-10-06T14:09:22.002Z,101718.89
2022-10-06T14:12:27.612Z,101725.94
2022-10-06T14:15:39.485Z,101719.41
2022-10-06T14:18:46.742Z,101712.46
2022-10-06T14:21:52.257Z,101723.48
2022-10-06T14:24:57.464Z,101721.03
2022-10-06T14:28:02.680Z,101719.56
2022-10-06T14:31:13.479Z,101723.59
2022-10-06T14:34:21.472Z,101728.66
2022-10-06T14:37:26.584Z,101725.86
2022-10-06T14:40:31.940Z,101724.37
2022-10-06T14:43:38.161Z,101723.90
2022-10-06T14:46:44.763Z,101728.05
2022-10-06T14:49:50.195Z,101733.48
2022-10-06T14:52:58.699Z,101734.71
2022-10-06T14:56:05.783Z,101737.10
2022-10-06T14:59:16.754Z,101738.78
2022-10-06T15:02:22.204Z,101734.50
2022-10-06T15:05:27.619Z,101736.04
2022-10-06T15:08:32.946Z,101736.08
2022-10-06T15:11:38.716Z,101737.19
2022-10-06T15:14:43.817Z,101740.73
2022-10-06T15:17:49.142Z,101742.86
2022-10-06T15:20:54.906Z,101749.32
2022-10-06T15:24:00.947Z,101752.17
2022-10-06T15:27:25.127Z,101753.30
2022-10-06T15:30:31.059Z,101753.73
2022-10-06T15:33:36.966Z,101754.06
2022-10-06T15:36:43.200Z,101759.42
2022-10-06T15:39:48.455Z,101761.54
2022-10-06T15:42:53.712Z,101758.30
2022-10-06T15:45:59.107Z,101758.00
2022-10-06T15:49:05.630Z,101761.20
2022-10-06T15:52:12.466Z,101760.50
2022-10-06T15:55:17.697Z,101756.91
2022-10-06T15:58:23.323Z,101754.63
2022-10-06T16:01:34.021Z,101760.88
2022-10-06T16:04:55.587Z,101759.21
2022-10-06T16:08:00.916Z,101754.92
2022-10-06T16:11:06.157Z,101755.08
2022-10-06T16:14:11.766Z,101765.84
2022-10-06T16:17:17.057Z,101764.08
2022-10-06T16:20:22.431Z,101764.98
2022-10-06T16:23:27.624Z,101768.11
2022-10-06T16:26:33.054Z,101778.30
2022-10-06T16:29:38.211Z,101782.28
2022-10-06T16:32:44.548Z,101785.03
2022-10-06T16:35:56.145Z,101783.95
2022-10-06T16:39:01.578Z,101791.02
2022-10-06T16:42:09.324Z,101796.25
2022-10-06T16:45:15.487Z,101802.21
2022-10-06T16:48:20.793Z,101810.52
2022-10-06T16:51:26.880Z,101812.52
2022-10-06T16:54:32.179Z,101822.54
2022-10-06T16:57:37.379Z,101824.30
2022-10-06T17:00:42.666Z,101825.54
2022-10-06T17:03:47.841Z,101827.30
2022-10-06T17:06:54.093Z,101833.55
2022-10-06T17:10:19.131Z,101833.45
2022-10-06T17:13:25.243Z,101835.46
2022-10-06T17:16:34.304Z,101843.17
2022-10-06T17:19:39.516Z,101843.09
2022-10-06T17:22:45.201Z,101843.33
2022-10-06T17:26:03.385Z,101843.86
2022-10-06T17:29:11.096Z,101847.13
2022-10-06T17:32:16.756Z,101848.36
2022-10-06T17:35:22.011Z,101849.89
2022-10-06T17:38:27.999Z,101850.54
2022-10-06T17:41:35.147Z,101849.58
2022-10-06T17:44:40.426Z,101847.15
2022-10-06T17:47:48.730Z,101847.48
2022-10-06T17:50:59.633Z,101847.07
2022-10-06T17:54:05.714Z,101847.48
2022-10-06T17:57:11.045Z,101850.65
2022-10-06T18:00:18.246Z,101854.80
2022-10-06T18:03:26.580Z,101861.33
2022-10-06T18:06:33.209Z,101859.44
2022-10-06T18:09:39.150Z,101863.48
2022-10-06T18:12:44.506Z,101866.23
2022-10-06T18:15:51.087Z,101864.05
2022-10-06T18:19:20.349Z,101864.52
2022-10-06T18:22:25.749Z,101863.60
2022-10-06T18:25:35.328Z,101868.29
2022-10-06T18:28:41.521Z,101876.17
2022-10-06T18:31:49.042Z,101876.95
2022-10-06T18:38:22.560Z,101885.83
2022-10-06T18:41:31.368Z,101883.85
2022-10-06T18:44:55.777Z,101885.45
2022-10-06T18:48:20.417Z,101882.00
2022-10-06T18:51:30.252Z,101879.41
2022-10-06T18:54:37.235Z,101885.02
2022-10-06T18:57:45.816Z,101893.61
2022-10-06T19:00:54.618Z,101897.34
2022-10-06T19:04:04.830Z,101898.23
2022-10-06T19:07:11.510Z,101897.08
2022-10-06T19:10:18.257Z,101896.19
2022-10-06T19:13:25.058Z,101896.20
2022-10-06T19:16:32.034Z,101902.23
2022-10-06T19:19:38.597Z,101902.33
2022-10-06T19:22:45.165Z,101905.30
2022-10-06T19:25:59.756Z,101901.67
2022-10-06T19:29:08.377Z,101903.14
2022-10-06T19:32:17.713Z,101909.38
2022-10-06T19:35:24.542Z,101910.43
2022-10-06T19:38:31.448Z,101910.60
2022-10-06T19:41:57.228Z,101914.14
2022-10-06T19:45:04.943Z,101920.51
2022-10-06T19:48:11.707Z,101922.34
2022-10-06T19:51:19.710Z,101922.23
2022-10-06T19:54:27.849Z,101920.75
2022-10-06T19:57:35.202Z,101924.54
2022-10-06T20:00:42.252Z,101926.34
2022-10-06T20:03:48.849Z,101932.92
2022-10-06T20:06:55.544Z,101937.55
2022-10-06T20:10:03.165Z,101938.55
2022-10-06T20:13:09.880Z,101935.85
2022-10-06T20:16:18.807Z,101940.70
2022-10-06T20:19:26.254Z,101944.58
2022-10-06T20:22:32.858Z,101950.02
2022-10-06T20:25:39.572Z,101949.20
2022-10-06T20:28:47.031Z,101948.91
2022-10-06T20:31:56.356Z,101948.50
2022-10-06T20:35:03.929Z,101946.86
2022-10-06T20:38:10.544Z,101950.95
2022-10-06T20:41:19.661Z,101953.21
2022-10-06T20:44:26.250Z,101950.68
2022-10-06T20:47:33.701Z,101957.86
2022-10-06T20:50:40.295Z,101957.11
2022-10-06T20:53:47.546Z,101961.20
2022-10-06T20:56:56.695Z,101959.86
2022-10-06T21:00:03.469Z,101964.79
2022-10-06T21:03:10.435Z,101969.80
2022-10-06T21:06:18.523Z,101971.36
2022-10-06T21:09:28.364Z,101973.92
2022-10-06T21:12:35.392Z,101974.39
2022-10-06T21:15:47.706Z,101974.50
2022-10-06T21:18:55.015Z,101978.61
2022-10-06T21:22:01.603Z,101974.27
2022-10-06T21:25:09.982Z,101968.69
2022-10-06T21:28:18.543Z,101970.00
2022-10-06T21:31:27.151Z,101964.91
2022-10-06T21:34:37.551Z,101965.32
2022-10-06T21:37:44.504Z,101962.40
2022-10-06T21:40:51.567Z,101963.60
2022-10-06T21:43:59.621Z,101958.86
2022-10-06T21:47:07.978Z,101961.31
2022-10-06T21:50:14.993Z,101963.00
2022-10-06T21:53:22.015Z,101960.44
2022-10-06T21:56:30.557Z,101955.33
2022-10-06T21:59:37.287Z,101955.94
2022-10-06T22:02:44.018Z,101956.16
2022-10-06T22:05:50.791Z,101959.62
2022-10-06T22:08:58.702Z,101962.64
2022-10-06T22:12:05.966Z,101960.31
2022-10-06T22:15:13.403Z,101961.36
2022-10-06T22:18:20.083Z,101956.15
2022-10-06T22:21:28.583Z,101955.17
2022-10-06T22:24:35.305Z,101960.41
2022-10-06T22:27:42.352Z,101958.48
2022-10-06T22:30:49.382Z,101960.23
2022-10-06T22:33:57.781Z,101959.53
2022-10-06T22:37:04.452Z,101960.25
2022-10-06T22:40:13.781Z,101957.27
2022-10-06T22:43:20.515Z,101955.86
2022-10-06T22:46:28.359Z,101961.15
2022-10-06T22:49:35.332Z,101959.13
2022-10-06T22:52:42.069Z,101958.08
2022-10-06T22:55:49.137Z,101957.39
2022-10-06T22:58:59.691Z,101955.73
2022-10-06T23:02:07.091Z,101952.63
2022-10-06T23:05:13.655Z,101954.25
2022-10-06T23:08:20.543Z,101951.67
2022-10-06T23:11:27.199Z,101952.90
2022-10-06T23:14:33.958Z,101955.25
2022-10-06T23:17:41.215Z,101954.36
2022-10-06T23:20:48.192Z,101954.05
2022-10-06T23:23:56.324Z,101955.20
2022-10-06T23:27:04.679Z,101955.48
2022-10-06T23:30:13.382Z,101955.56
2022-10-06T23:33:20.067Z,101961.11
2022-10-06T23:36:26.930Z,101963.15
2022-10-06T23:39:33.717Z,101964.49
2022-10-06T23:42:40.459Z,101962.39
2022-10-06T23:45:47.360Z,101959.61
2022-10-06T23:48:54.151Z,101959.46
2022-10-06T23:52:01.030Z,101961.80
2022-10-06T23:55:08.884Z,101959.77
2022-10-06T23:58:15.793Z,101959.80
